Time;durP1;ratioP1;P1;durP2;ratioP2;P2;SDS_P1;SDS_P2;PMS_P1;PMS_P2;Temp;Humidity;BMP_temperature;BMP_pressure;BME280_temperature;BME280_humidity;BME280_pressure;Samples;Min_cycle;Max_cycle;Signal;HPM_P1;HPM_P2
2023/12/31 00:02:06;;;;;;;215.25;104.68;;;;;;;;;;5024183;28;20034;-70
2023/12/31 00:04:32;;;;;;;253.80;122.88;;;;;;;;;;5016458;28;20474;-70
2023/12/31 00:06:58;;;;;;;340.50;143.20;;;;;;;;;;5049184;28;20029;-72
2023/12/31 00:09:24;;;;;;;247.00;111.70;;;;;;;;;;5039515;28;20090;-74
2023/12/31 00:11:50;;;;;;;227.55;104.88;;;;;;;;;;5043480;28;20068;-66
2023/12/31 00:14:16;;;;;;;258.90;119.50;;;;;;;;;;5030824;28;20042;-64
2023/12/31 00:16:42;;;;;;;191.20;88.43;;;;;;;;;;5032804;28;20037;-73
2023/12/31 00:19:08;;;;;;;181.38;86.50;;;;;;;;;;5027679;28;20073;-65
2023/12/31 00:21:34;;;;;;;174.90;83.03;;;;;;;;;;5041395;28;20025;-73
2023/12/31 00:24:03;;;;;;;178.68;88.15;;;;;;;;;;5034563;28;20041;-70
2023/12/31 00:26:29;;;;;;;153.13;79.05;;;;;;;;;;5034191;28;20582;-73
2023/12/31 00:28:55;;;;;;;130.98;64.75;;;;;;;;;;5041018;28;20044;-70
2023/12/31 00:31:22;;;;;;;115.50;59.47;;;;;;;;;;5042707;28;20599;-66
2023/12/31 00:33:47;;;;;;;112.05;57.45;;;128.50;2252.80;;;;;;5025520;28;20059;-62
2023/12/31 00:36:13;;;;;;;153.63;80.88;;;128.20;2252.80;;;;;;5030849;28;20029;-74
2023/12/31 00:38:39;;;;;;;127.95;65.40;;;103.30;2227.20;;;;;;5032145;28;20026;-67
2023/12/31 00:41:04;;;;;;;119.50;58.85;;;103.20;2227.20;;;;;;5030872;28;20111;-68
2023/12/31 00:43:30;;;;;;;103.45;53.50;;;103.20;2227.20;;;;;;5027076;28;20126;-75
2023/12/31 00:45:56;;;;;;;90.60;47.72;;;103.10;2227.20;;;;;;5028585;28;20041;-74
2023/12/31 00:48:21;;;;;;;73.60;39.63;;;103.10;2227.20;;;;;;5031122;28;20534;-74
2023/12/31 00:50:47;;;;;;;65.20;35.47;;;103.00;2227.20;;;;;;5031454;28;20523;-72
2023/12/31 00:53:13;;;;;;;66.53;35.90;;;103.10;2227.20;;;;;;5030967;28;20033;-74
2023/12/31 00:55:38;;;;;;;69.32;37.65;;;103.10;2227.20;;;;;;5027614;28;20041;-74
2023/12/31 00:58:05;;;;;;;65.47;36.60;;;103.10;2227.20;;;;;;5028434;28;20018;-76
2023/12/31 01:00:31;;;;;;;62.88;35.40;;;103.10;2227.20;;;;;;5028978;28;20063;-69
2023/12/31 01:02:56;;;;;;;90.53;46.78;;;103.10;2227.20;;;;;;5023200;28;20042;-72
2023/12/31 01:05:22;;;;;;;88.43;43.53;;;103.10;2227.20;;;;;;5030772;28;20495;-67
2023/12/31 01:07:48;;;;;;;90.30;43.17;;;103.20;2227.20;;;;;;5012766;28;20031;-75
2023/12/31 01:10:13;;;;;;;84.57;41.85;;;103.20;2227.20;;;;;;5030033;28;20034;-68
2023/12/31 01:12:39;;;;;;;117.43;58.05;;;103.20;2227.20;;;;;;5028042;28;20380;-63
2023/12/31 01:15:05;;;;;;;102.90;49.33;;;103.30;2227.20;;;;;;5030350;28;20025;-73
2023/12/31 01:17:31;;;;;;;109.50;50.45;;;128.00;2252.80;;;;;;5027925;28;20025;-68
2023/12/31 01:19:57;;;;;;;306.10;134.10;;;128.00;2252.80;;;;;;5008212;28;20052;-68
2023/12/31 01:22:22;;;;;;;106.95;53.13;;;128.00;2252.80;;;;;;5007228;28;20037;-67
2023/12/31 01:24:48;;;;;;;104.63;51.40;;;128.00;2252.80;;;;;;5027530;28;20033;-70
2023/12/31 01:27:14;;;;;;;133.63;64.97;;;128.00;2252.80;;;;;;5029978;28;20461;-63
2023/12/31 01:29:40;;;;;;;177.95;108.45;;;128.10;2252.80;;;;;;5023067;28;20029;-76
2023/12/31 01:32:05;;;;;;;105.10;55.05;;;128.20;2252.80;;;;;;5024353;28;20052;-75
2023/12/31 01:34:31;;;;;;;84.10;46.13;;;128.20;2252.80;;;;;;5025841;28;20480;-72
2023/12/31 01:36:57;;;;;;;112.45;57.65;;;128.30;2252.80;;;;;;5026096;28;20568;-72
2023/12/31 01:39:22;;;;;;;106.45;54.95;;;128.40;2252.80;;;;;;5027298;28;20025;-69
2023/12/31 01:41:48;;;;;;;95.10;50.80;;;128.40;2252.80;;;;;;5023686;28;20109;-76
2023/12/31 01:44:14;;;;;;;105.63;54.20;;;128.40;2252.80;;;;;;5022801;28;20064;-63
2023/12/31 01:46:40;;;;;;;92.22;47.90;;;128.40;2252.80;;;;;;5025212;28;20057;-67
2023/12/31 01:49:09;;;;;;;86.35;46.90;;;128.40;2252.80;;;;;;5025747;28;20429;-64
2023/12/31 01:51:35;;;;;;;96.78;54.30;;;128.40;2252.80;;;;;;5024201;28;20042;-69
2023/12/31 01:54:04;;;;;;;90.97;48.63;;;128.40;2252.80;;;;;;5024660;28;20486;-62
2023/12/31 01:56:36;;;;;;;90.13;46.47;;;128.50;2252.80;;;;;;5024200;28;20096;-72
2023/12/31 01:59:04;;;;;;;98.63;49.92;;;128.50;2252.80;;;;;;5030068;28;20037;-63
2023/12/31 02:01:31;;;;;;;107.70;52.60;;;128.50;2252.80;;;;;;5026733;28;20108;-74
2023/12/31 02:03:57;;;;;;;108.03;52.60;;;128.50;2252.80;;;;;;5027949;28;20045;-63
2023/12/31 02:06:23;;;;;;;253.93;128.40;;;128.50;2252.80;;;;;;5030017;28;20040;-72
2023/12/31 02:08:49;;;;;;;199.70;111.78;;;128.40;2252.80;;;;;;5031452;28;20099;-73
2023/12/31 02:11:16;;;;;;;210.23;115.13;;;128.50;2252.80;;;;;;5033329;28;20484;-62
2023/12/31 02:13:42;;;;;;;190.48;105.65;;;128.50;2252.80;;;;;;5035783;28;20030;-75
2023/12/31 02:16:14;;;;;;;167.00;100.63;;;128.50;2252.80;;;;;;5034240;28;20365;-64
2023/12/31 02:18:40;;;;;;;88.82;48.28;;;128.50;2252.80;;;;;;5032602;28;20037;-62
2023/12/31 02:21:07;;;;;;;82.25;45.90;;;128.50;2252.80;;;;;;5030697;28;20112;-63
2023/12/31 02:23:33;;;;;;;83.13;44.92;;;128.50;2252.80;;;;;;5030973;28;20029;-67
2023/12/31 02:26:09;;;;;;;84.13;45.53;;;128.50;2252.80;;;;;;5033811;28;20033;-63
2023/12/31 02:28:36;;;;;;;81.53;42.53;;;128.50;2252.80;;;;;;5033261;28;20092;-62
2023/12/31 02:31:03;;;;;;;76.43;40.30;;;128.40;2252.80;;;;;;5033658;28;20080;-62
2023/12/31 02:33:28;;;;;;;71.45;38.28;;;128.40;2252.80;;;;;;5034023;28;20021;-66
2023/12/31 02:35:54;;;;;;;69.75;37.35;;;128.40;2252.80;;;;;;5015462;28;20045;-63
2023/12/31 02:38:20;;;;;;;62.45;33.47;;;128.20;2252.80;;;;;;5033386;28;20211;-63
2023/12/31 02:40:45;;;;;;;61.88;33.65;;;128.00;2252.80;;;;;;5030529;28;20033;-62
2023/12/31 02:43:11;;;;;;;56.40;31.10;;;103.20;2227.20;;;;;;5030698;28;20388;-64
2023/12/31 02:45:37;;;;;;;58.13;31.15;;;102.80;2227.20;;;;;;5015772;28;20029;-67
2023/12/31 02:48:03;;;;;;;64.25;34.38;;;102.80;2227.20;;;;;;5033298;28;20045;-63
2023/12/31 02:50:31;;;;;;;64.00;35.15;;;102.90;2227.20;;;;;;5033778;28;20136;-63
2023/12/31 02:52:57;;;;;;;62.67;34.40;;;102.70;2227.20;;;;;;5033284;28;20017;-63
2023/12/31 02:55:23;;;;;;;66.18;36.45;;;102.70;2227.20;;;;;;5033342;28;20040;-62
2023/12/31 02:57:48;;;;;;;73.90;38.10;;;102.60;2227.20;;;;;;5032821;28;20022;-63
2023/12/31 03:00:14;;;;;;;74.25;37.50;;;102.50;2227.20;;;;;;5030924;28;20022;-64
2023/12/31 03:02:40;;;;;;;127.88;37.17;;;102.40;2227.20;;;;;;5028476;28;20092;-63
2023/12/31 03:05:10;;;;;;;225.90;41.72;;;102.40;2227.20;;;;;;5031759;28;20500;-65
2023/12/31 03:07:36;;;;;;;341.20;44.70;;;77.60;2227.20;;;;;;5033019;28;20140;-62
2023/12/31 03:10:02;;;;;;;387.75;47.10;;;77.60;2227.20;;;;;;5033092;28;20183;-66
2023/12/31 03:12:28;;;;;;;230.57;42.50;;;77.30;2227.20;;;;;;5031391;28;20032;-65
2023/12/31 03:14:55;;;;;;;313.95;45.20;;;77.30;2227.20;;;;;;4998504;28;20064;-63
2023/12/31 03:17:22;;;;;;;277.08;47.30;;;77.20;2227.20;;;;;;5032675;28;20089;-62
2023/12/31 03:19:48;;;;;;;158.13;46.70;;;77.00;2227.20;;;;;;5012925;28;20480;-62
2023/12/31 03:22:14;;;;;;;76.15;38.90;;;77.20;2227.20;;;;;;5027968;28;20033;-62
2023/12/31 03:24:43;;;;;;;81.53;40.72;;;77.30;2227.20;;;;;;5030230;28;20036;-62
2023/12/31 03:27:09;;;;;;;90.22;42.53;;;77.20;2227.20;;;;;;5032073;28;20022;-61
2023/12/31 03:29:35;;;;;;;91.30;44.03;;;77.30;2227.20;;;;;;5032333;28;20476;-72
2023/12/31 03:32:01;;;;;;;81.00;40.80;;;77.30;2227.20;;;;;;5031669;28;20036;-62
2023/12/31 03:34:27;;;;;;;79.88;39.47;;;77.30;2227.20;;;;;;5032298;28;20037;-62
2023/12/31 03:36:53;;;;;;;89.78;44.00;;;77.30;2227.20;;;;;;5032097;28;20032;-65
2023/12/31 03:39:18;;;;;;;108.40;50.80;;;77.30;2227.20;;;;;;5032542;28;20040;-65
2023/12/31 03:41:44;;;;;;;100.82;48.40;;;77.40;2227.20;;;;;;5027643;28;20030;-62
2023/12/31 03:44:10;;;;;;;108.15;52.30;;;77.50;2227.20;;;;;;5032510;28;20407;-62
2023/12/31 03:46:35;;;;;;;110.65;52.92;;;77.60;2227.20;;;;;;5032334;28;20029;-63
2023/12/31 03:49:01;;;;;;;103.32;51.70;;;77.70;2227.20;;;;;;5032047;28;20041;-62
2023/12/31 03:51:27;;;;;;;120.03;57.05;;;77.70;2227.20;;;;;;5032178;28;20431;-63
2023/12/31 03:53:52;;;;;;;103.25;51.53;;;102.40;2227.20;;;;;;5032105;28;20036;-66
2023/12/31 03:56:18;;;;;;;115.13;54.03;;;77.70;2227.20;;;;;;5014681;28;20060;-62
2023/12/31 03:58:44;;;;;;;108.78;52.53;;;77.60;2227.20;;;;;;5009968;28;20037;-62
2023/12/31 04:01:09;;;;;;;108.85;52.10;;;77.50;2227.20;;;;;;5031731;28;20029;-62
2023/12/31 04:03:35;;;;;;;136.70;52.47;;;77.40;2227.20;;;;;;5031996;28;20043;-64
2023/12/31 04:06:01;;;;;;;135.70;53.88;;;77.10;2227.20;;;;;;5032368;28;20698;-62
2023/12/31 04:08:27;;;;;;;109.40;50.17;;;76.80;2227.20;;;;;;5032127;28;20480;-67
2023/12/31 04:10:52;;;;;;;128.82;52.17;;;52.10;2227.20;;;;;;5031195;28;20531;-62
2023/12/31 04:13:18;;;;;;;156.88;51.65;;;52.10;2227.20;;;;;;5031271;28;20065;-63
2023/12/31 04:15:44;;;;;;;632.33;282.38;;;76.80;2227.20;;;;;;5030722;28;20026;-62
2023/12/31 04:18:10;;;;;;;150.32;60.17;;;76.90;2227.20;;;;;;5029903;28;20104;-73
2023/12/31 04:20:35;;;;;;;121.68;51.47;;;76.90;2227.20;;;;;;5031001;28;20530;-74
2023/12/31 04:23:01;;;;;;;124.35;50.13;;;76.90;2227.20;;;;;;5031858;28;20033;-73
2023/12/31 04:25:26;;;;;;;175.88;49.15;;;77.00;2227.20;;;;;;5031755;28;20136;-71
2023/12/31 04:27:52;;;;;;;162.45;50.47;;;77.10;2227.20;;;;;;5031472;28;20030;-62
2023/12/31 04:30:22;;;;;;;260.67;53.08;;;77.20;2227.20;;;;;;5029721;28;20044;-62
2023/12/31 04:32:48;;;;;;;353.50;56.38;;;77.20;2227.20;;;;;;5031907;28;20026;-73
2023/12/31 04:35:14;;;;;;;190.05;52.88;;;77.20;2227.20;;;;;;5030734;28;20504;-62
2023/12/31 04:37:39;;;;;;;142.90;51.75;;;77.40;2227.20;;;;;;5029991;28;20033;-63
2023/12/31 04:40:06;;;;;;;119.57;48.60;;;77.50;2227.20;;;;;;5041236;28;20021;-62
2023/12/31 04:42:32;;;;;;;173.02;60.45;;;77.50;2227.20;;;;;;5052638;28;20024;-62
2023/12/31 04:44:59;;;;;;;152.25;61.35;;;77.50;2227.20;;;;;;5040082;28;20025;-67
2023/12/31 04:47:25;;;;;;;147.93;59.67;;;77.40;2227.20;;;;;;5032648;28;20044;-66
2023/12/31 04:49:51;;;;;;;205.27;70.38;;;77.40;2227.20;;;;;;5032632;28;20026;-64
2023/12/31 04:52:16;;;;;;;166.60;62.75;;;77.30;2227.20;;;;;;5032735;28;20029;-62
2023/12/31 04:54:42;;;;;;;187.90;76.18;;;77.30;2227.20;;;;;;5028802;28;20132;-63
2023/12/31 04:57:08;;;;;;;217.98;92.78;;;77.30;2227.20;;;;;;5028232;28;20073;-68
2023/12/31 04:59:33;;;;;;;181.57;78.00;;;77.40;2227.20;;;;;;5032140;28;20022;-74
2023/12/31 05:01:59;;;;;;;158.90;63.42;;;77.40;2227.20;;;;;;5032231;28;20073;-69
2023/12/31 05:04:25;;;;;;;134.07;56.60;;;77.30;2227.20;;;;;;5032309;28;20108;-76
2023/12/31 05:06:50;;;;;;;138.35;59.47;;;77.30;2227.20;;;;;;5032286;28;20017;-62
2023/12/31 05:09:16;;;;;;;159.02;72.07;;;77.30;2227.20;;;;;;5032227;28;20061;-72
2023/12/31 05:11:42;;;;;;;139.95;62.15;;;77.30;2227.20;;;;;;5032228;28;20117;-70
2023/12/31 05:14:07;;;;;;;133.68;60.28;;;77.30;2227.20;;;;;;5031879;28;20500;-73
2023/12/31 05:16:33;;;;;;;122.10;54.78;;;77.30;2227.20;;;;;;5028249;28;20037;-70
2023/12/31 05:19:00;;;;;;;116.20;52.22;;;77.20;2227.20;;;;;;5028774;28;20030;-62
2023/12/31 05:21:27;;;;;;;119.95;56.65;;;77.20;2227.20;;;;;;5032489;28;20060;-67
2023/12/31 05:23:52;;;;;;;111.18;53.42;;;77.20;2227.20;;;;;;5042548;28;20029;-71
2023/12/31 05:26:18;;;;;;;97.25;47.22;;;77.10;2227.20;;;;;;5042530;28;20435;-71
2023/12/31 05:28:44;;;;;;;105.57;50.20;;;77.00;2227.20;;;;;;5031701;28;20033;-62
2023/12/31 05:31:10;;;;;;;100.05;47.65;;;76.90;2227.20;;;;;;5034296;28;20045;-72
2023/12/31 05:33:36;;;;;;;96.03;45.00;;;76.80;2227.20;;;;;;5051854;28;20029;-62
2023/12/31 05:36:02;;;;;;;97.30;43.75;;;52.10;2227.20;;;;;;5028544;28;20037;-63
2023/12/31 05:38:28;;;;;;;91.90;42.63;;;51.80;2227.20;;;;;;5030179;28;20033;-62
2023/12/31 05:40:54;;;;;;;91.45;44.03;;;51.90;2227.20;;;;;;5031698;28;20060;-61
2023/12/31 05:43:19;;;;;;;91.97;42.10;;;51.80;2227.20;;;;;;5031218;28;20464;-62
2023/12/31 05:45:45;;;;;;;98.05;46.72;;;51.80;2227.20;;;;;;5031520;28;20021;-61
2023/12/31 05:48:13;;;;;;;90.97;42.67;;;51.70;2227.20;;;;;;5032810;28;20022;-71
2023/12/31 05:50:38;;;;;;;90.13;42.35;;;51.40;2227.20;;;;;;5031564;28;20090;-68
2023/12/31 05:53:04;;;;;;;94.35;43.83;;;51.20;2227.20;;;;;;5029356;28;20025;-62
2023/12/31 05:55:31;;;;;;;95.55;43.83;;;51.40;2227.20;;;;;;5026546;28;20037;-71
2023/12/31 05:57:57;;;;;;;104.78;48.13;;;51.40;2227.20;;;;;;5031551;28;20017;-68
2023/12/31 06:00:23;;;;;;;105.95;47.75;;;51.50;2227.20;;;;;;5031223;28;20048;-62
2023/12/31 06:02:49;;;;;;;109.20;51.30;;;51.50;2227.20;;;;;;5031445;28;20050;-71
2023/12/31 06:05:16;;;;;;;105.95;48.20;;;51.40;2227.20;;;;;;5031595;28;20022;-70
2023/12/31 06:07:42;;;;;;;110.57;50.92;;;51.40;2227.20;;;;;;5031570;28;20018;-71
2023/12/31 06:10:08;;;;;;;118.30;53.78;;;51.50;2227.20;;;;;;5031416;28;20052;-62
2023/12/31 06:12:33;;;;;;;115.25;53.72;;;51.60;2227.20;;;;;;5027603;28;20024;-75
2023/12/31 06:14:59;;;;;;;113.00;53.30;;;51.70;2227.20;;;;;;5031435;28;20017;-70
2023/12/31 06:17:26;;;;;;;127.38;58.55;;;51.80;2227.20;;;;;;5031982;28;20032;-72
2023/12/31 06:19:52;;;;;;;118.63;57.88;;;51.90;2227.20;;;;;;5031152;28;20026;-70
2023/12/31 06:22:18;;;;;;;121.28;57.05;;;51.90;2227.20;;;;;;5031998;28;20037;-63
2023/12/31 06:24:44;;;;;;;127.95;61.03;;;52.00;2227.20;;;;;;5046717;28;20036;-63
2023/12/31 06:27:10;;;;;;;131.82;64.72;;;52.00;2227.20;;;;;;5030624;28;20088;-70
2023/12/31 06:29:35;;;;;;;137.05;64.65;;;52.00;2227.20;;;;;;5030917;28;20025;-63
2023/12/31 06:32:01;;;;;;;129.40;63.85;;;52.00;2227.20;;;;;;5027774;28;20038;-62
2023/12/31 06:34:27;;;;;;;140.15;69.68;;;52.10;2227.20;;;;;;5033262;28;20044;-63
2023/12/31 06:36:53;;;;;;;127.22;63.17;;;52.10;2227.20;;;;;;5030873;28;20361;-62
2023/12/31 06:39:18;;;;;;;117.85;59.42;;;52.10;2227.20;;;;;;5028371;28;20060;-62
2023/12/31 06:41:44;;;;;;;119.45;60.88;;;76.80;2227.20;;;;;;5031379;28;20033;-62
2023/12/31 06:44:10;;;;;;;121.57;61.78;;;76.90;2227.20;;;;;;5009829;28;20038;-62
2023/12/31 06:46:35;;;;;;;120.63;56.72;;;76.90;2227.20;;;;;;5030446;28;20029;-62
2023/12/31 06:49:01;;;;;;;112.50;56.33;;;76.80;2227.20;;;;;;5030842;28;20377;-62
2023/12/31 06:51:26;;;;;;;110.95;54.40;;;76.90;2227.20;;;;;;5029530;28;20069;-62
2023/12/31 06:53:52;;;;;;;118.30;57.75;;;76.90;2227.20;;;;;;5029492;28;20108;-63
2023/12/31 06:56:18;;;;;;;135.98;63.33;;;76.90;2227.20;;;;;;5028451;28;20037;-62
2023/12/31 06:58:44;;;;;;;141.98;71.10;;;77.10;2227.20;;;;;;5034789;28;20021;-62
2023/12/31 07:01:09;;;;;;;126.13;63.00;;;77.20;2227.20;;;;;;5034523;28;20048;-62
2023/12/31 07:03:35;;;;;;;118.57;59.10;;;77.60;2227.20;;;;;;5034704;28;20037;-63
2023/12/31 07:06:01;;;;;;;158.23;69.15;;;103.20;2227.20;;;;;;5025741;28;20026;-62
2023/12/31 07:08:27;;;;;;;254.73;104.45;;;153.80;2252.80;;;;;;5032923;28;20388;-62
2023/12/31 07:10:54;;;;;;;177.48;85.00;;;179.50;2252.80;;;;;;5027561;28;20041;-62
2023/12/31 07:13:20;;;;;;;156.10;93.72;;;179.90;2252.80;;;;;;5042321;28;20474;-62
2023/12/31 07:15:45;;;;;;;163.75;96.95;;;204.90;2252.80;;;;;;5034675;28;20073;-62
2023/12/31 07:18:11;;;;;;;120.07;72.00;;;205.20;2252.80;;;;;;5032927;28;20029;-63
2023/12/31 07:20:38;;;;;;;97.90;56.72;;;;;;;;;;5030950;28;20072;-63
2023/12/31 07:23:04;;;;;;;83.80;50.13;;;281.70;2278.40;;;;;;5027981;28;20465;-65
2023/12/31 07:25:32;;;;;;;80.78;44.70;;;282.20;2278.40;;;;;;5030706;28;20057;-63
2023/12/31 07:27:58;;;;;;;92.25;49.50;;;307.30;2304.00;;;;;;5033388;28;20076;-62
2023/12/31 07:30:25;;;;;;;68.40;39.55;;;307.20;2304.00;;;;;;5014939;28;20129;-63
2023/12/31 07:32:51;;;;;;;63.75;37.15;;;307.30;2304.00;;;;;;5028534;28;20027;-63
2023/12/31 07:35:17;;;;;;;54.40;33.08;;;307.50;2304.00;;;;;;5032408;28;20476;-63
2023/12/31 07:37:43;;;;;;;59.92;35.45;;;307.40;2304.00;;;;;;5032771;28;20017;-65
2023/12/31 07:40:10;;;;;;;57.35;35.22;;;307.70;2304.00;;;;;;5033136;28;20105;-62
2023/12/31 07:42:39;;;;;;;63.60;38.05;;;332.80;2329.60;;;;;;5027134;28;20095;-63
2023/12/31 07:45:06;;;;;;;63.67;39.05;;;332.90;2329.60;;;;;;5029060;28;20492;-63
2023/12/31 07:47:35;;;;;;;66.35;42.22;;;333.30;2329.60;;;;;;5005398;28;20377;-62
2023/12/31 07:50:07;;;;;;;91.13;65.70;;;333.10;2329.60;;;;;;5015483;28;20031;-62
2023/12/31 07:52:33;;;;;;;56.38;36.05;;;333.20;2329.60;;;;;;5032127;28;20033;-63
2023/12/31 07:54:59;;;;;;;60.65;38.70;;;333.00;2329.60;;;;;;5032062;28;20513;-63
2023/12/31 07:57:24;;;;;;;47.05;30.15;;;333.10;2329.60;;;;;;5032520;28;20057;-63
2023/12/31 07:59:50;;;;;;;52.03;33.85;;;333.00;2329.60;;;;;;5031157;28;20534;-63
2023/12/31 08:02:16;;;;;;;61.58;39.60;;;333.00;2329.60;;;;;;5026988;28;20043;-63
2023/12/31 08:04:42;;;;;;;51.38;32.58;;;333.00;2329.60;;;;;;5030411;28;20021;-62
2023/12/31 08:07:08;;;;;;;78.65;49.85;;;333.20;2329.60;;;;;;5032068;28;20037;-63
2023/12/31 08:09:34;;;;;;;112.63;62.42;;;333.10;2329.60;;;;;;5030701;28;20032;-64
2023/12/31 08:12:00;;;;;;;83.35;50.25;;;333.20;2329.60;;;;;;5031006;28;20042;-63
2023/12/31 08:14:25;;;;;;;70.65;42.97;;;358.50;2329.60;;;;;;5012429;28;20049;-62
2023/12/31 08:16:51;;;;;;;70.13;40.97;;;333.70;2329.60;;;;;;5011832;28;20089;-63
2023/12/31 08:19:16;;;;;;;68.72;41.78;;;358.40;2329.60;;;;;;5021843;28;20112;-63
2023/12/31 08:21:43;;;;;;;60.80;36.70;;;358.50;2329.60;;;;;;5030215;28;20042;-63
2023/12/31 08:24:08;;;;;;;45.65;29.75;;;358.80;2329.60;;;;;;5032431;28;20465;-62
2023/12/31 08:26:37;;;;;;;44.40;28.25;;;;;;;;;;5031731;28;20033;-62
2023/12/31 08:29:03;;;;;;;47.30;32.05;;;;;;;;;;5025158;28;20028;-62
2023/12/31 08:31:29;;;;;;;55.63;35.72;;;;;;;;;;5012231;28;20429;-62
2023/12/31 08:33:55;;;;;;;64.88;38.25;;;358.90;2329.60;;;;;;5011171;28;20038;-62
2023/12/31 08:36:21;;;;;;;57.90;38.00;;;359.00;2329.60;;;;;;5012278;28;20018;-65
2023/12/31 08:38:46;;;;;;;65.07;37.40;;;359.30;2329.60;;;;;;5020850;28;20392;-65
2023/12/31 08:41:12;;;;;;;50.80;32.47;;;384.00;2329.60;;;;;;5028223;28;20021;-64
2023/12/31 08:43:38;;;;;;;56.20;32.05;;;384.70;2304.00;;;;;;5030121;28;20092;-63
2023/12/31 08:46:04;;;;;;;53.33;30.05;;;384.50;2329.60;;;;;;5031918;28;20021;-63
2023/12/31 08:48:29;;;;;;;45.22;29.33;;;384.30;2329.60;;;;;;5030650;28;20508;-63
2023/12/31 08:50:55;;;;;;;127.32;57.72;;;384.50;2329.60;;;;;;5030186;28;20045;-65
2023/12/31 08:53:21;;;;;;;70.15;39.78;;;384.80;2304.00;;;;;;5018200;28;20037;-62
2023/12/31 08:55:51;;;;;;;72.32;40.65;;;384.60;2329.60;;;;;;5017592;28;20431;-62
2023/12/31 08:58:17;;;;;;;108.00;52.38;;;409.60;2304.00;;;;;;5027712;28;20037;-62
2023/12/31 09:00:43;;;;;;;59.03;35.63;;;410.10;2227.20;;;;;;5028670;28;20034;-65
2023/12/31 09:03:08;;;;;;;55.72;33.53;;;410.20;2252.80;;;;;;5015485;28;20072;-62
2023/12/31 09:05:34;;;;;;;68.20;37.25;;;410.20;2252.80;;;;;;5015601;28;20665;-67
2023/12/31 09:08:04;;;;;;;41.38;26.50;;;410.20;2201.60;;;;;;5013071;28;20128;-65
2023/12/31 09:10:30;;;;;;;96.45;45.67;;;409.90;2201.60;;;;;;5012671;28;20432;-64
2023/12/31 09:12:55;;;;;;;48.60;29.13;;;409.90;2355.20;;;;;;5000380;28;20034;-64
2023/12/31 09:15:21;;;;;;;44.65;27.40;;;409.60;2355.20;;;;;;5010914;28;20038;-64
2023/12/31 09:17:47;;;;;;;52.97;31.67;;;410.10;2355.20;;;;;;5019821;28;20060;-65
2023/12/31 09:20:16;;;;;;;44.20;28.60;;;410.10;2304.00;;;;;;5010563;28;20249;-69
2023/12/31 09:22:41;;;;;;;57.70;33.80;;;435.40;2227.20;;;;;;5009326;28;20041;-65
2023/12/31 09:25:08;;;;;;;72.75;40.97;;;410.50;2227.20;;;;;;5009672;28;20377;-64
2023/12/31 09:27:34;;;;;;;66.40;36.95;;;435.30;2201.60;;;;;;5010975;28;20026;-64
2023/12/31 09:30:00;;;;;;;64.60;35.60;;;435.50;2176.00;;;;;;5010600;28;20038;-66
2023/12/31 09:32:26;;;;;;;67.30;41.15;;;435.40;2124.80;;;;;;4977543;28;20060;-64
2023/12/31 09:34:51;;;;;;;63.25;35.47;;;410.20;2304.00;;;;;;5009354;28;20038;-65
2023/12/31 09:37:20;;;;;;;67.10;34.53;;;410.40;2304.00;;;;;;5010942;28;20040;-64
2023/12/31 09:39:48;;;;;;;42.67;25.75;;;410.50;2304.00;;;;;;5010291;28;20123;-64
2023/12/31 09:42:33;;;;;;;86.97;45.05;;;435.70;2201.60;;;;;;5000674;28;20018;-66
2023/12/31 09:45:03;;;;;;;42.80;26.38;;;436.00;2124.80;;;;;;5010490;28;20048;-67
2023/12/31 09:47:30;;;;;;;92.68;43.90;;;435.20;2201.60;;;;;;5008034;28;20450;-68
2023/12/31 09:49:57;;;;;;;37.45;25.13;;;410.40;2278.40;;;;;;5004564;28;20042;-65
2023/12/31 09:52:26;;;;;;;48.20;29.20;;;435.20;2227.20;;;;;;5001281;28;20116;-64
2023/12/31 09:54:54;;;;;;;35.50;21.88;;;435.20;2227.20;;;;;;5009487;28;20038;-71
2023/12/31 09:57:20;;;;;;;31.33;20.25;;;;;;;;;;5010782;28;20038;-68
2023/12/31 09:59:48;;;;;;;27.20;17.58;;;409.60;2355.20;;;;;;5010907;28;20615;-73
2023/12/31 10:02:23;;;;;;;45.92;29.27;;;384.60;2329.60;;;;;;5014465;28;20037;-69
2023/12/31 10:04:53;;;;;;;35.47;22.13;;;384.60;2329.60;;;;;;5028693;28;20037;-73
2023/12/31 10:07:20;;;;;;;37.75;23.88;;;359.10;2329.60;;;;;;5029925;28;20048;-72
2023/12/31 10:09:47;;;;;;;38.42;24.30;;;359.10;2329.60;;;;;;5031564;28;20059;-70
2023/12/31 10:12:14;;;;;;;55.80;32.08;;;359.30;2329.60;;;;;;5030059;28;20045;-70
2023/12/31 10:14:40;;;;;;;55.28;33.08;;;384.30;2329.60;;;;;;5041666;28;20507;-74
2023/12/31 10:17:09;;;;;;;52.90;32.17;;;384.10;2329.60;;;;;;5028843;28;20037;-74
2023/12/31 10:19:35;;;;;;;61.10;32.40;;;384.40;2329.60;;;;;;5028787;28;20138;-70
2023/12/31 10:22:05;;;;;;;124.32;59.50;;;384.60;2329.60;;;;;;5030179;28;20053;-73
2023/12/31 10:24:31;;;;;;;112.28;52.40;;;384.40;2329.60;;;;;;5033999;28;20045;-66
2023/12/31 10:27:00;;;;;;;71.60;38.30;;;359.00;2329.60;;;;;;5033854;28;20021;-64
2023/12/31 10:29:26;;;;;;;51.83;30.17;;;359.20;2329.60;;;;;;5030536;28;20368;-64
2023/12/31 10:31:53;;;;;;;68.55;34.60;;;384.10;2329.60;;;;;;5029232;28;20037;-63
2023/12/31 10:34:19;;;;;;;124.47;53.17;;;384.30;2329.60;;;;;;5037198;28;20025;-64
2023/12/31 10:36:46;;;;;;;44.30;25.45;;;384.50;2329.60;;;;;;5035193;28;20483;-63
2023/12/31 10:39:29;;;;;;;62.17;38.70;;;409.80;2355.20;;;;;;5041640;28;20464;-64
2023/12/31 10:41:59;;;;;;;47.90;28.20;;;409.70;2355.20;;;;;;5030211;28;20797;-64
2023/12/31 10:44:27;;;;;;;33.30;20.73;;;384.60;2329.60;;;;;;5032145;28;20033;-64
2023/12/31 10:47:00;;;;;;;39.00;22.98;;;384.30;2329.60;;;;;;5026660;28;20045;-63
2023/12/31 10:49:27;;;;;;;55.13;29.95;;;384.90;2329.60;;;;;;5031973;28;20372;-64
2023/12/31 10:51:54;;;;;;;50.28;29.52;;;410.10;2355.20;;;;;;5037260;28;20148;-69
2023/12/31 10:54:38;;;;;;;40.28;23.65;;;;;;;;;;5044033;28;20021;-74
2023/12/31 10:57:06;;;;;;;30.13;19.63;;;410.50;2355.20;;;;;;5026490;28;20476;-72
2023/12/31 10:59:34;;;;;;;27.73;16.92;;;410.10;2355.20;;;;;;5041410;28;20068;-67
2023/12/31 11:02:01;;;;;;;28.35;15.98;;;409.80;2355.20;;;;;;5031238;28;20132;-70
2023/12/31 11:04:29;;;;;;;27.67;16.63;;;384.80;2329.60;;;;;;5030267;28;20112;-72
2023/12/31 11:06:55;;;;;;;71.50;47.22;;;384.30;2329.60;;;;;;5032769;28;20183;-73
2023/12/31 11:09:21;;;;;;;33.38;21.95;;;359.20;2329.60;;;;;;5048558;28;20028;-69
2023/12/31 11:11:49;;;;;;;26.13;16.98;;;384.10;2329.60;;;;;;5044546;28;20072;-72
2023/12/31 11:14:16;;;;;;;27.30;17.20;;;359.00;2329.60;;;;;;5026032;28;20057;-64
2023/12/31 11:17:02;;;;;;;34.30;21.58;;;358.70;2329.60;;;;;;5040929;28;20487;-69
2023/12/31 11:20:06;;;;;;;27.17;17.33;;;358.60;2329.60;;;;;;5041783;28;20032;-71
2023/12/31 11:23:06;;;;;;;27.85;18.33;;;358.60;2329.60;;;;;;5026451;28;20083;-63
2023/12/31 11:25:32;;;;;;;31.65;20.13;;;358.40;2329.60;;;;;;5030280;28;20076;-68
2023/12/31 11:27:58;;;;;;;59.28;34.70;;;333.60;2329.60;;;;;;5028821;28;20381;-71
2023/12/31 11:30:55;;;;;;;41.30;25.30;;;333.40;2329.60;;;;;;5013546;28;20030;-74
2023/12/31 11:33:25;;;;;;;31.02;19.60;;;333.20;2329.60;;;;;;4996023;28;20030;-66
2023/12/31 11:35:52;;;;;;;27.05;18.38;;;333.10;2329.60;;;;;;4991070;28;20057;-73
2023/12/31 11:38:21;;;;;;;27.65;19.02;;;333.10;2329.60;;;;;;4991635;28;20042;-63
2023/12/31 11:40:49;;;;;;;37.45;19.88;;;333.60;2329.60;;;;;;4984790;28;20454;-71
2023/12/31 11:43:20;;;;;;;42.63;24.73;;;358.40;2329.60;;;;;;4976882;28;20031;-71
2023/12/31 11:45:48;;;;;;;37.40;22.52;;;358.60;2329.60;;;;;;4997352;28;20164;-73
2023/12/31 11:48:23;;;;;;;54.38;32.35;;;358.70;2329.60;;;;;;5004988;28;20037;-72
2023/12/31 11:50:50;;;;;;;37.65;21.58;;;358.50;2329.60;;;;;;4997869;28;20520;-73
2023/12/31 11:53:16;;;;;;;46.03;31.58;;;358.40;2329.60;;;;;;5010618;28;20030;-73
2023/12/31 11:55:44;;;;;;;45.80;27.55;;;358.40;2329.60;;;;;;5000058;28;20027;-71
2023/12/31 11:58:10;;;;;;;44.65;26.88;;;358.40;2329.60;;;;;;4988071;28;20044;-63
2023/12/31 12:00:38;;;;;;;46.67;28.98;;;333.70;2329.60;;;;;;4997208;28;20104;-71
2023/12/31 12:03:05;;;;;;;50.25;30.60;;;333.60;2329.60;;;;;;4994080;28;20049;-63
2023/12/31 12:05:31;;;;;;;53.35;31.02;;;333.50;2329.60;;;;;;4984900;28;20037;-66